createdAt,value
2019-01-26T00:01:08.824Z,6.17
2019-01-26T00:03:40.623Z,5.92
2019-01-26T00:06:12.164Z,5.80
2019-01-26T00:08:44.753Z,5.72
2019-01-26T00:11:16.372Z,5.92
2019-01-26T00:13:47.829Z,5.80
2019-01-26T00:16:21.162Z,5.83
2019-01-26T00:18:52.909Z,5.70
2019-01-26T00:21:24.611Z,5.45
2019-01-26T00:23:56.008Z,5.50
2019-01-26T00:26:27.565Z,6.20
2019-01-26T00:28:59.223Z,6.22
2019-01-26T00:31:30.923Z,5.75
2019-01-26T00:34:02.311Z,5.85
2019-01-26T00:36:33.727Z,6.28
2019-01-26T00:39:07.403Z,5.85
2019-01-26T00:41:39.115Z,6.15
2019-01-26T00:44:10.721Z,6.30
2019-01-26T00:46:42.455Z,6.28
2019-01-26T00:49:13.936Z,6.35
2019-01-26T00:51:45.284Z,6.37
2019-01-26T00:54:16.934Z,6.12
2019-01-26T00:56:48.623Z,6.33
2019-01-26T00:59:19.940Z,6.67
2019-01-26T01:01:51.465Z,5.97
2019-01-26T01:04:23.250Z,6.33
2019-01-26T01:06:54.798Z,6.25
2019-01-26T01:09:26.050Z,6.67
2019-01-26T01:11:57.787Z,7.30
2019-01-26T01:14:29.371Z,5.50
2019-01-26T01:17:00.967Z,7.87
2019-01-26T01:19:32.617Z,8.23
2019-01-26T01:22:04.039Z,6.83
2019-01-26T01:24:35.382Z,8.63
2019-01-26T01:27:06.892Z,8.10
2019-01-26T01:29:38.113Z,7.62
2019-01-26T01:32:09.718Z,8.03
2019-01-26T01:34:41.004Z,8.30
2019-01-26T01:37:12.543Z,8.40
2019-01-26T01:39:43.781Z,8.05
2019-01-26T01:42:15.112Z,8.30
2019-01-26T01:44:46.708Z,8.33
2019-01-26T01:47:18.102Z,8.33
2019-01-26T01:49:49.713Z,8.75
2019-01-26T01:52:21.169Z,7.53
2019-01-26T01:54:52.542Z,7.37
2019-01-26T01:57:24.094Z,8.23
2019-01-26T01:59:55.848Z,9.35
2019-01-26T02:02:27.279Z,8.60
2019-01-26T02:04:58.700Z,8.58
2019-01-26T02:07:30.008Z,9.35
2019-01-26T02:10:01.490Z,8.98
2019-01-26T02:12:32.989Z,8.63
2019-01-26T02:15:04.789Z,9.55
2019-01-26T02:17:36.320Z,9.55
2019-01-26T02:20:09.668Z,9.50
2019-01-26T02:22:41.262Z,10.08
2019-01-26T02:25:13.540Z,10.00
2019-01-26T02:27:45.279Z,9.73
2019-01-26T02:30:19.569Z,9.45
2019-01-26T02:32:50.931Z,10.65
2019-01-26T02:35:22.559Z,10.30
2019-01-26T02:37:53.935Z,10.00
2019-01-26T02:40:25.558Z,8.18
2019-01-26T02:42:57.266Z,10.30
2019-01-26T02:45:28.772Z,9.43
2019-01-26T02:48:00.167Z,8.80
2019-01-26T02:50:31.739Z,9.25
2019-01-26T02:53:02.933Z,8.70
2019-01-26T02:55:34.364Z,8.60
2019-01-26T02:58:05.660Z,9.60
2019-01-26T03:00:37.116Z,9.48
2019-01-26T03:03:08.500Z,9.60
2019-01-26T03:05:40.415Z,9.95
2019-01-26T03:08:11.871Z,9.53
2019-01-26T03:10:44.386Z,9.98
2019-01-26T03:13:16.046Z,10.40
2019-01-26T03:15:47.699Z,9.38
2019-01-26T03:18:18.984Z,9.43
2019-01-26T03:20:50.531Z,10.28
2019-01-26T03:23:22.134Z,10.18
2019-01-26T03:25:53.729Z,11.10
2019-01-26T03:28:25.156Z,12.63
2019-01-26T03:30:56.491Z,11.93
2019-01-26T03:33:27.908Z,11.63
2019-01-26T03:35:59.360Z,11.70
2019-01-26T03:38:30.973Z,12.00
2019-01-26T03:41:02.199Z,11.48
2019-01-26T03:43:33.529Z,12.35
2019-01-26T03:46:05.287Z,12.68
2019-01-26T03:48:36.920Z,11.95
2019-01-26T03:51:08.313Z,12.40
2019-01-26T03:53:39.951Z,12.55
2019-01-26T03:56:11.387Z,12.85
2019-01-26T03:58:43.063Z,14.15
2019-01-26T04:01:14.711Z,13.83
2019-01-26T04:03:46.427Z,14.00
2019-01-26T04:06:17.902Z,13.08
2019-01-26T04:08:49.453Z,12.85
2019-01-26T04:11:21.021Z,13.32
2019-01-26T04:13:52.372Z,12.95
2019-01-26T04:16:23.993Z,12.68
2019-01-26T04:18:55.563Z,12.65
2019-01-26T04:21:27.219Z,13.83
2019-01-26T04:23:58.845Z,14.40
2019-01-26T04:26:30.275Z,12.30
2019-01-26T04:29:01.834Z,15.00
2019-01-26T04:31:33.094Z,15.15
2019-01-26T04:34:04.411Z,14.85
2019-01-26T04:36:35.868Z,15.48
2019-01-26T04:39:09.304Z,14.98
2019-01-26T04:41:40.755Z,14.95
2019-01-26T04:44:12.339Z,16.30
2019-01-26T04:46:44.000Z,15.70
2019-01-26T04:49:15.511Z,15.43
2019-01-26T04:51:47.187Z,15.32
2019-01-26T04:54:18.642Z,16.70
2019-01-26T04:56:50.317Z,16.77
2019-01-26T04:59:21.960Z,16.05
2019-01-26T05:01:53.483Z,15.65
2019-01-26T05:04:24.953Z,15.10
2019-01-26T05:06:56.275Z,15.70
2019-01-26T05:09:27.862Z,15.95
2019-01-26T05:11:59.067Z,16.20
2019-01-26T05:14:30.531Z,17.25
2019-01-26T05:17:02.100Z,17.57
2019-01-26T05:19:33.328Z,17.48
2019-01-26T05:22:04.796Z,16.50
2019-01-26T05:24:36.292Z,17.65
2019-01-26T05:27:07.501Z,18.40
2019-01-26T05:29:39.108Z,17.77
2019-01-26T05:32:10.582Z,16.82
2019-01-26T05:34:42.066Z,18.27
2019-01-26T05:37:13.379Z,16.87
2019-01-26T05:39:44.843Z,17.67
2019-01-26T05:42:16.363Z,18.20
2019-01-26T05:44:47.547Z,17.30
2019-01-26T05:47:18.856Z,18.05
2019-01-26T05:49:50.297Z,18.60
2019-01-26T05:52:21.591Z,18.50
2019-01-26T05:54:53.047Z,19.02
2019-01-26T05:57:24.713Z,19.60
2019-01-26T05:59:56.132Z,18.98
2019-01-26T06:02:27.889Z,19.77
2019-01-26T06:04:59.461Z,19.00
2019-01-26T06:07:31.139Z,19.32
2019-01-26T06:10:02.774Z,18.35
2019-01-26T06:12:34.262Z,19.48
2019-01-26T06:15:06.637Z,17.62
2019-01-26T06:17:38.403Z,20.17
2019-01-26T06:20:10.521Z,19.65
2019-01-26T06:22:42.213Z,18.90
2019-01-26T06:25:14.634Z,20.05
2019-01-26T06:27:47.262Z,19.37
2019-01-26T06:30:20.714Z,18.02
2019-01-26T06:32:52.204Z,19.90
2019-01-26T06:35:23.863Z,20.92
2019-01-26T06:37:55.492Z,20.82
2019-01-26T06:40:27.133Z,21.25
2019-01-26T06:42:58.386Z,21.37
2019-01-26T06:45:29.882Z,20.10
2019-01-26T06:48:02.274Z,20.20
2019-01-26T06:50:34.336Z,20.23
2019-01-26T06:53:06.344Z,21.10
2019-01-26T06:55:38.513Z,22.70
2019-01-26T06:58:10.062Z,20.30
2019-01-26T07:00:41.601Z,21.02
2019-01-26T07:03:12.946Z,21.30
2019-01-26T07:05:52.022Z,22.15
2019-01-26T07:08:24.257Z,21.23
2019-01-26T07:10:55.909Z,20.88
2019-01-26T07:13:27.403Z,20.72
2019-01-26T07:16:00.833Z,19.30
2019-01-26T07:18:32.638Z,23.45
2019-01-26T07:21:04.318Z,20.88
2019-01-26T07:23:35.930Z,20.95
2019-01-26T07:26:07.378Z,20.82
2019-01-26T07:28:38.889Z,21.52
2019-01-26T07:31:10.541Z,20.88
2019-01-26T07:33:41.977Z,23.12
2019-01-26T07:36:13.478Z,21.48
2019-01-26T07:38:44.796Z,24.63
2019-01-26T07:41:16.349Z,23.70
2019-01-26T07:43:47.742Z,24.87
2019-01-26T07:46:19.387Z,22.20
2019-01-26T07:48:50.845Z,20.95
2019-01-26T07:51:22.147Z,24.23
2019-01-26T07:53:54.358Z,20.68
2019-01-26T07:56:26.294Z,22.90
2019-01-26T07:58:57.507Z,22.75
2019-01-26T08:01:29.577Z,22.02
2019-01-26T08:04:01.317Z,20.85
2019-01-26T08:06:33.035Z,24.87
2019-01-26T08:09:06.283Z,20.62
2019-01-26T08:11:38.623Z,22.02
2019-01-26T08:14:11.098Z,20.40
2019-01-26T08:16:42.763Z,21.70
2019-01-26T08:19:14.318Z,22.80
2019-01-26T08:21:45.993Z,20.75
2019-01-26T08:24:17.704Z,21.70
2019-01-26T08:26:49.205Z,23.45
2019-01-26T08:29:20.905Z,22.20
2019-01-26T08:31:52.543Z,23.38
2019-01-26T08:34:23.879Z,24.05
2019-01-26T08:36:55.218Z,23.18
2019-01-26T08:39:26.698Z,22.52
2019-01-26T08:41:58.090Z,22.20
2019-01-26T08:44:29.607Z,22.67
2019-01-26T08:47:01.170Z,21.48
2019-01-26T08:49:32.705Z,22.85
2019-01-26T08:52:03.925Z,21.75
2019-01-26T08:54:35.375Z,19.80
2019-01-26T08:57:07.103Z,21.60
2019-01-26T08:59:38.418Z,22.77
2019-01-26T09:02:29.843Z,23.12
2019-01-26T09:05:01.598Z,22.05
2019-01-26T09:07:33.009Z,22.32
2019-01-26T09:10:04.586Z,23.80
2019-01-26T09:12:35.926Z,20.48
2019-01-26T09:15:09.186Z,22.15
2019-01-26T09:17:40.660Z,20.55
2019-01-26T09:20:12.242Z,21.55
2019-01-26T09:22:45.442Z,21.93
2019-01-26T09:25:16.748Z,21.60
2019-01-26T09:27:48.544Z,21.27
2019-01-26T09:30:20.269Z,21.17
2019-01-26T09:32:51.947Z,21.30
2019-01-26T09:35:23.538Z,20.55
2019-01-26T09:37:55.235Z,20.80
2019-01-26T09:40:26.773Z,21.35
2019-01-26T09:42:58.222Z,21.10
2019-01-26T09:45:29.585Z,20.50
2019-01-26T09:48:00.937Z,22.35
2019-01-26T09:50:32.272Z,21.02
2019-01-26T09:53:03.699Z,19.15
2019-01-26T09:55:35.066Z,21.17
2019-01-26T09:58:06.557Z,20.65
2019-01-26T10:00:38.264Z,21.60
2019-01-26T10:03:09.822Z,21.33
2019-01-26T10:05:41.529Z,20.20
2019-01-26T10:08:13.012Z,20.00
2019-01-26T10:10:44.886Z,19.10
2019-01-26T10:13:16.612Z,20.70
2019-01-26T10:15:48.066Z,20.88
2019-01-26T10:18:19.930Z,20.40
2019-01-26T10:20:51.147Z,20.08
2019-01-26T10:23:22.771Z,17.73
2019-01-26T10:25:54.414Z,18.00
2019-01-26T10:28:26.012Z,20.55
2019-01-26T10:31:00.908Z,20.23
2019-01-26T10:33:32.596Z,19.32
2019-01-26T10:36:23.011Z,19.35
2019-01-26T10:39:00.566Z,18.98
2019-01-26T10:41:58.227Z,20.40
2019-01-26T10:44:31.131Z,19.95
2019-01-26T10:47:02.578Z,20.10
2019-01-26T10:49:34.173Z,18.57
2019-01-26T10:52:06.065Z,19.87
2019-01-26T10:54:37.591Z,18.95
2019-01-26T10:57:09.094Z,17.85
2019-01-26T10:59:40.548Z,18.98
2019-01-26T11:02:12.277Z,17.45
2019-01-26T11:04:43.702Z,18.20
2019-01-26T11:07:15.890Z,19.32
2019-01-26T11:09:47.739Z,18.32
2019-01-26T11:12:19.130Z,17.92
2019-01-26T11:14:50.376Z,16.37
2019-01-26T11:17:23.216Z,18.15
2019-01-26T11:19:55.005Z,17.90
2019-01-26T11:22:26.324Z,16.60
2019-01-26T11:24:57.770Z,18.52
2019-01-26T11:27:29.177Z,20.10
2019-01-26T11:30:00.544Z,19.10
2019-01-26T11:32:31.842Z,17.92
2019-01-26T11:35:03.248Z,18.25
2019-01-26T11:37:34.729Z,16.48
2019-01-26T11:40:19.688Z,19.62
2019-01-26T11:42:51.175Z,18.60
2019-01-26T11:45:56.341Z,18.82
2019-01-26T11:48:31.998Z,20.68
2019-01-26T11:51:16.582Z,18.70
2019-01-26T11:53:48.535Z,21.25
2019-01-26T11:56:27.690Z,19.37
2019-01-26T11:58:59.224Z,21.93
2019-01-26T12:01:55.846Z,19.05
2019-01-26T12:04:44.912Z,18.95
2019-01-26T12:07:19.108Z,20.40
2019-01-26T12:09:50.816Z,19.55
2019-01-26T12:12:22.155Z,16.67
2019-01-26T12:14:53.503Z,21.82
2019-01-26T12:17:24.862Z,17.15
2019-01-26T12:19:56.090Z,19.70
2019-01-26T12:22:27.721Z,19.48
2019-01-26T12:24:59.074Z,20.60
2019-01-26T12:27:30.648Z,19.67
2019-01-26T12:30:02.244Z,19.85
2019-01-26T12:32:33.487Z,21.35
2019-01-26T12:35:05.721Z,18.98
2019-01-26T12:37:36.948Z,20.45
2019-01-26T12:40:09.212Z,19.17
2019-01-26T12:42:40.620Z,20.12
2019-01-26T12:45:15.178Z,18.80
2019-01-26T12:47:46.402Z,18.42
2019-01-26T12:50:17.992Z,19.10
2019-01-26T12:52:49.716Z,20.12
2019-01-26T12:55:21.358Z,18.70
2019-01-26T12:57:52.843Z,18.50
2019-01-26T13:00:24.325Z,19.42
2019-01-26T13:02:55.878Z,17.42
2019-01-26T13:05:27.401Z,19.23
2019-01-26T13:07:59.163Z,18.30
2019-01-26T13:10:34.099Z,21.35
2019-01-26T13:13:07.010Z,18.85
2019-01-26T13:15:39.505Z,21.37
2019-01-26T13:18:11.157Z,20.10
2019-01-26T13:20:42.769Z,20.48
2019-01-26T13:23:14.648Z,19.10
2019-01-26T13:25:46.167Z,19.95
2019-01-26T13:28:17.995Z,18.80
2019-01-26T13:30:49.374Z,18.55
2019-01-26T13:33:20.977Z,18.98
2019-01-26T13:35:52.532Z,24.50
2019-01-26T13:38:23.931Z,29.23
2019-01-26T13:40:55.352Z,18.57
2019-01-26T13:43:27.179Z,20.48
2019-01-26T13:45:58.941Z,18.55
2019-01-26T13:48:30.742Z,20.05
2019-01-26T13:51:02.436Z,18.65
2019-01-26T13:53:33.777Z,19.40
2019-01-26T13:56:05.551Z,18.67
2019-01-26T13:58:37.412Z,20.12
2019-01-26T14:01:08.972Z,17.77
2019-01-26T14:03:40.559Z,19.15
2019-01-26T14:06:12.094Z,18.92
2019-01-26T14:08:43.641Z,20.82
2019-01-26T14:11:15.036Z,20.62
2019-01-26T14:13:47.287Z,22.05
2019-01-26T14:16:18.735Z,20.72
2019-01-26T14:18:50.329Z,21.57
2019-01-26T14:21:21.901Z,21.62
2019-01-26T14:23:54.589Z,19.37
2019-01-26T14:26:26.121Z,23.60
2019-01-26T14:28:57.816Z,22.30
2019-01-26T14:31:29.338Z,21.12
2019-01-26T14:34:00.652Z,21.45
2019-01-26T14:36:32.042Z,22.60
2019-01-26T14:39:05.443Z,21.52
2019-01-26T14:41:37.101Z,23.57
2019-01-26T14:44:08.823Z,20.85
2019-01-26T14:46:40.635Z,19.98
2019-01-26T14:49:12.277Z,21.20
2019-01-26T14:51:43.571Z,20.97
2019-01-26T14:54:15.071Z,23.70
2019-01-26T14:56:46.783Z,25.43
2019-01-26T14:59:17.982Z,24.80
2019-01-26T15:01:49.280Z,22.87
2019-01-26T15:04:20.962Z,24.25
2019-01-26T15:06:52.667Z,23.02
2019-01-26T15:09:24.354Z,23.10
2019-01-26T15:11:56.397Z,24.32
2019-01-26T15:14:29.190Z,23.45
2019-01-26T15:17:00.788Z,20.72
2019-01-26T15:19:32.435Z,22.87
2019-01-26T15:22:04.064Z,22.65
2019-01-26T15:24:35.781Z,25.20
2019-01-26T15:27:07.791Z,24.52
2019-01-26T15:29:39.882Z,24.85
2019-01-26T15:32:11.603Z,24.40
2019-01-26T15:34:43.017Z,23.20
2019-01-26T15:37:14.998Z,24.15
2019-01-26T15:39:46.956Z,24.55
2019-01-26T15:42:18.448Z,25.43
2019-01-26T15:44:49.960Z,23.70
2019-01-26T15:47:21.180Z,23.98
2019-01-26T15:49:52.736Z,22.55
2019-01-26T15:52:24.378Z,22.02
2019-01-26T15:54:55.616Z,24.55
2019-01-26T15:57:27.424Z,24.52
2019-01-26T15:59:59.086Z,25.90
2019-01-26T16:02:30.367Z,25.02
2019-01-26T16:05:02.039Z,24.43
2019-01-26T16:07:33.496Z,26.40
2019-01-26T16:10:05.340Z,22.58
2019-01-26T16:12:36.757Z,23.90
2019-01-26T16:15:10.823Z,24.15
2019-01-26T16:17:43.078Z,25.08
2019-01-26T16:20:20.241Z,24.95
2019-01-26T16:22:49.193Z,25.70
2019-01-26T16:25:20.517Z,26.20
2019-01-26T16:27:51.998Z,28.77
2019-01-26T16:30:26.165Z,26.07
2019-01-26T16:32:57.711Z,26.17
2019-01-26T16:35:29.577Z,24.15
2019-01-26T16:38:01.129Z,24.90
2019-01-26T16:40:34.100Z,26.45
2019-01-26T16:43:06.770Z,24.85
2019-01-26T16:45:39.956Z,24.20
2019-01-26T16:48:13.667Z,25.00
2019-01-26T16:50:45.120Z,25.52
2019-01-26T16:53:17.117Z,22.52
2019-01-26T16:55:48.861Z,22.32
2019-01-26T16:58:20.204Z,22.27
2019-01-26T17:00:54.018Z,25.88
2019-01-26T17:03:25.567Z,24.50
2019-01-26T17:05:57.326Z,25.15
2019-01-26T17:08:28.893Z,21.77
2019-01-26T17:11:00.095Z,24.60
2019-01-26T17:13:31.356Z,25.72
2019-01-26T17:16:03.415Z,25.15
2019-01-26T17:18:34.963Z,24.50
2019-01-26T17:21:06.727Z,24.12
2019-01-26T17:23:38.606Z,23.92
2019-01-26T17:26:10.124Z,23.70
2019-01-26T17:28:41.769Z,25.30
2019-01-26T17:31:13.224Z,25.08
2019-01-26T17:33:44.909Z,22.65
2019-01-26T17:36:16.372Z,20.95
2019-01-26T17:38:47.890Z,25.43
2019-01-26T17:41:19.322Z,24.20
2019-01-26T17:43:50.821Z,22.80
2019-01-26T17:46:22.474Z,23.62
2019-01-26T17:48:54.113Z,23.47
2019-01-26T17:51:25.354Z,24.25
2019-01-26T17:53:56.894Z,23.52
2019-01-26T17:56:28.591Z,25.70
2019-01-26T17:59:00.015Z,24.47
2019-01-26T18:01:31.652Z,25.50
2019-01-26T18:04:03.454Z,23.83
2019-01-26T18:06:35.174Z,22.70
2019-01-26T18:09:09.293Z,22.93
2019-01-26T18:11:41.266Z,21.85
2019-01-26T18:14:12.636Z,24.75
2019-01-26T18:16:44.230Z,23.30
2019-01-26T18:19:15.589Z,30.43
2019-01-26T18:21:47.115Z,23.07
2019-01-26T18:24:18.808Z,22.75
2019-01-26T18:26:50.853Z,23.30
2019-01-26T18:29:22.623Z,22.65
2019-01-26T18:31:54.056Z,24.57
2019-01-26T18:34:25.268Z,23.05
2019-01-26T18:36:56.898Z,21.90
2019-01-26T18:39:28.248Z,23.40
2019-01-26T18:41:59.562Z,24.63
2019-01-26T18:44:30.736Z,24.82
2019-01-26T18:47:02.263Z,24.02
2019-01-26T18:49:33.868Z,24.85
2019-01-26T18:52:05.340Z,23.87
2019-01-26T18:54:36.572Z,24.32
2019-01-26T18:57:08.017Z,27.93
2019-01-26T18:59:39.369Z,27.90
2019-01-26T19:02:10.993Z,26.85
2019-01-26T19:04:49.697Z,27.73
2019-01-26T19:07:21.262Z,27.55
2019-01-26T19:09:52.929Z,25.90
2019-01-26T19:12:24.658Z,26.85
2019-01-26T19:14:56.438Z,25.62
2019-01-26T19:17:28.203Z,23.67
2019-01-26T19:19:59.795Z,26.65
2019-01-26T19:22:31.190Z,25.75
2019-01-26T19:25:02.758Z,23.18
2019-01-26T19:27:34.099Z,24.12
2019-01-26T19:30:06.561Z,24.35
2019-01-26T19:32:38.067Z,24.20
2019-01-26T19:35:09.958Z,23.12
2019-01-26T19:37:41.163Z,22.67
2019-01-26T19:40:20.276Z,23.62
2019-01-26T19:42:53.573Z,25.82
2019-01-26T19:45:25.786Z,23.07
2019-01-26T19:47:57.142Z,23.83
2019-01-26T19:50:28.623Z,24.32
2019-01-26T19:52:59.899Z,23.60
2019-01-26T19:55:31.431Z,24.10
2019-01-26T19:58:02.732Z,23.42
2019-01-26T20:00:36.376Z,21.27
2019-01-26T20:03:08.317Z,21.05
2019-01-26T20:05:39.771Z,21.68
2019-01-26T20:08:11.324Z,25.00
2019-01-26T20:10:42.761Z,21.10
2019-01-26T20:13:14.205Z,23.30
2019-01-26T20:15:45.527Z,24.57
2019-01-26T20:18:17.180Z,21.97
2019-01-26T20:20:48.817Z,22.55
2019-01-26T20:23:20.225Z,23.52
2019-01-26T20:25:51.795Z,23.47
2019-01-26T20:28:23.238Z,23.35
2019-01-26T20:30:54.551Z,22.87
2019-01-26T20:33:26.001Z,22.80
2019-01-26T20:35:57.988Z,23.50
2019-01-26T20:38:29.547Z,23.57
2019-01-26T20:41:00.745Z,23.55
2019-01-26T20:43:31.960Z,23.73
2019-01-26T20:46:04.214Z,25.80
2019-01-26T20:48:35.678Z,21.35
2019-01-26T20:51:07.044Z,23.87
2019-01-26T20:53:38.598Z,23.38
2019-01-26T20:56:09.982Z,25.00
2019-01-26T20:58:41.262Z,23.22
2019-01-26T21:01:12.621Z,25.15
2019-01-26T21:03:44.078Z,23.05
2019-01-26T21:06:16.664Z,23.98
2019-01-26T21:08:48.946Z,22.48
2019-01-26T21:11:20.742Z,25.05
2019-01-26T21:13:52.419Z,24.43
2019-01-26T21:16:24.871Z,23.67
2019-01-26T21:18:56.289Z,23.07
2019-01-26T21:21:31.968Z,25.62
2019-01-26T21:24:00.995Z,25.68
2019-01-26T21:26:32.429Z,27.75
2019-01-26T21:29:03.777Z,25.52
2019-01-26T21:31:35.480Z,26.82
2019-01-26T21:34:07.072Z,25.88
2019-01-26T21:36:38.729Z,25.25
2019-01-26T21:39:10.595Z,26.17
2019-01-26T21:41:42.466Z,25.80
2019-01-26T21:44:14.147Z,25.65
2019-01-26T21:46:45.683Z,27.62
2019-01-26T21:49:17.164Z,26.42
2019-01-26T21:51:48.745Z,26.77
2019-01-26T21:54:20.049Z,24.87
2019-01-26T21:56:51.381Z,24.45
2019-01-26T21:59:23.032Z,24.02
2019-01-26T22:01:54.350Z,23.52
2019-01-26T22:04:25.845Z,22.13
2019-01-26T22:06:57.261Z,21.48
2019-01-26T22:09:28.533Z,21.17
2019-01-26T22:12:00.213Z,28.98
2019-01-26T22:14:31.564Z,24.95
2019-01-26T22:17:03.057Z,22.77
2019-01-26T22:19:34.970Z,22.17
2019-01-26T22:22:07.015Z,21.50
2019-01-26T22:24:38.721Z,22.52
2019-01-26T22:27:10.055Z,22.42
2019-01-26T22:29:41.546Z,21.77
2019-01-26T22:32:13.226Z,22.48
2019-01-26T22:34:45.068Z,21.97
2019-01-26T22:37:16.487Z,21.48
2019-01-26T22:39:47.763Z,24.15
2019-01-26T22:42:19.147Z,24.18
2019-01-26T22:44:50.340Z,23.20
2019-01-26T22:47:21.727Z,23.27
2019-01-26T22:49:53.355Z,24.87
2019-01-26T22:52:24.604Z,21.48
2019-01-26T22:54:56.042Z,23.25
2019-01-26T22:57:27.500Z,23.95
2019-01-26T22:59:58.946Z,26.48
2019-01-26T23:02:30.635Z,23.52
2019-01-26T23:05:57.715Z,23.85
2019-01-26T23:08:30.955Z,22.42
2019-01-26T23:11:24.657Z,23.57
2019-01-26T23:14:44.263Z,22.32
2019-01-26T23:17:40.158Z,22.95
2019-01-26T23:20:40.607Z,23.80
2019-01-26T23:23:36.809Z,23.30
2019-01-26T23:26:17.325Z,22.90
2019-01-26T23:29:11.450Z,23.73
2019-01-26T23:31:42.875Z,22.75
2019-01-26T23:34:14.738Z,22.95
2019-01-26T23:36:46.091Z,23.55
2019-01-26T23:39:17.615Z,21.90
2019-01-26T23:41:49.141Z,23.85
2019-01-26T23:44:20.319Z,22.02
2019-01-26T23:46:51.569Z,22.40
2019-01-26T23:49:22.960Z,22.67
2019-01-26T23:51:54.570Z,21.73
2019-01-26T23:54:26.090Z,23.30
2019-01-26T23:56:57.696Z,21.77
2019-01-26T23:59:29.167Z,21.77
